createdAt,value
2022-08-09T00:01:54.710Z,99851.59
2022-08-09T00:04:34.954Z,99852.63
2022-08-09T00:07:07.598Z,99851.94
2022-08-09T00:09:41.526Z,99855.69
2022-08-09T00:12:22.468Z,99848.75
2022-08-09T00:15:06.656Z,99856.59
2022-08-09T00:18:10.515Z,99851.28
2022-08-09T00:20:25.204Z,99855.44
2022-08-09T00:22:54.562Z,99859.56
2022-08-09T00:25:32.661Z,99858.06
2022-08-09T00:28:04.163Z,99857.19
2022-08-09T00:30:33.821Z,99857.50
2022-08-09T00:33:03.057Z,99847.38
2022-08-09T00:36:52.677Z,99853.09
2022-08-09T00:40:10.421Z,99853.09
2022-08-09T00:44:15.691Z,99851.47
2022-08-09T00:45:03.531Z,99855.38
2022-08-09T00:47:43.809Z,99849.09
2022-08-09T00:50:15.170Z,99851.78
2022-08-09T00:52:44.756Z,99850.72
2022-08-09T00:56:39.500Z,99852.19
2022-08-09T00:59:10.076Z,99851.56
2022-08-09T01:01:44.853Z,99857.97
2022-08-09T01:04:28.124Z,99857.97
2022-08-09T01:07:38.018Z,99853.09
2022-08-09T01:10:32.228Z,99847.69
2022-08-09T01:13:11.752Z,99850.19
2022-08-09T01:15:51.695Z,99850.44
2022-08-09T01:18:30.353Z,99853.00
2022-08-09T01:21:19.063Z,99847.81
2022-08-09T01:24:04.858Z,99854.00
2022-08-09T01:27:01.406Z,99855.06
2022-08-09T01:29:54.879Z,99853.41
2022-08-09T01:32:34.221Z,99848.69
2022-08-09T01:35:28.573Z,99864.31
2022-08-09T01:38:10.492Z,99862.03
2022-08-09T01:40:53.147Z,99852.28
2022-08-09T01:47:31.489Z,99859.03
2022-08-09T01:50:06.592Z,99854.09
2022-08-09T01:52:43.733Z,99859.31
2022-08-09T01:55:14.856Z,99859.31
2022-08-09T01:57:50.724Z,99864.22
2022-08-09T02:00:35.551Z,99869.19
2022-08-09T02:03:13.564Z,99863.75
2022-08-09T02:06:45.538Z,99875.41
2022-08-09T02:09:41.666Z,99871.09
2022-08-09T02:12:21.237Z,99870.69
2022-08-09T02:14:56.407Z,99871.09
2022-08-09T02:18:01.537Z,99871.41
2022-08-09T02:20:26.226Z,99873.56
2022-08-09T02:23:08.279Z,99880.06
2022-08-09T02:25:49.607Z,99883.16
2022-08-09T02:28:36.393Z,99887.94
2022-08-09T02:31:14.451Z,99874.00
2022-08-09T02:46:44.661Z,99880.13
2022-08-09T02:49:20.696Z,99887.56
2022-08-09T02:52:11.627Z,99884.06
2022-08-09T02:54:51.225Z,99886.47
2022-08-09T02:57:26.820Z,99884.09
2022-08-09T03:00:20.567Z,99884.44
2022-08-09T03:03:00.229Z,99880.84
2022-08-09T03:05:34.373Z,99883.88
2022-08-09T03:08:06.538Z,99883.94
2022-08-09T03:10:39.374Z,99880.88
2022-08-09T03:13:15.221Z,99883.97
2022-08-09T03:20:35.003Z,99884.19
2022-08-09T03:23:24.373Z,99883.16
2022-08-09T03:30:28.143Z,99888.69
2022-08-09T03:33:53.157Z,99886.25
2022-08-09T03:36:27.262Z,99888.75
2022-08-09T03:38:58.439Z,99889.81
2022-08-09T03:41:44.833Z,99892.47
2022-08-09T03:44:16.951Z,99899.94
2022-08-09T03:46:50.418Z,99889.06
2022-08-09T03:49:58.282Z,99894.00
2022-08-09T03:52:29.808Z,99890.00
2022-08-09T03:55:09.866Z,99891.19
2022-08-09T03:57:44.648Z,99891.44
2022-08-09T04:00:28.466Z,99894.25
2022-08-09T04:03:01.882Z,99898.47
2022-08-09T04:05:33.121Z,99903.06
2022-08-09T04:08:10.636Z,99905.50
2022-08-09T04:10:40.457Z,99908.44
2022-08-09T04:13:11.781Z,99901.88
2022-08-09T04:16:18.894Z,99906.00
2022-08-09T04:18:34.460Z,99901.63
2022-08-09T04:21:05.740Z,99904.56
2022-08-09T04:23:39.149Z,99903.59
2022-08-09T04:26:12.785Z,99909.56
2022-08-09T04:28:46.948Z,99904.56
2022-08-09T04:31:16.524Z,99907.50
2022-08-09T04:33:56.610Z,99909.00
2022-08-09T04:37:06.740Z,99907.59
2022-08-09T04:39:40.551Z,99906.06
2022-08-09T04:42:12.208Z,99907.13
2022-08-09T04:44:49.111Z,99910.38
2022-08-09T04:47:18.959Z,99910.53
2022-08-09T04:49:56.930Z,99907.50
2022-08-09T04:52:29.573Z,99917.47
2022-08-09T04:55:06.517Z,99916.84
2022-08-09T04:57:53.864Z,99918.16
2022-08-09T05:00:31.859Z,99924.34
2022-08-09T05:03:12.788Z,99921.41
2022-08-09T05:06:06.490Z,99929.16
2022-08-09T05:08:43.946Z,99929.38
2022-08-09T05:11:22.594Z,99928.44
2022-08-09T05:14:05.857Z,99927.72
2022-08-09T05:16:59.392Z,99937.00
2022-08-09T05:19:46.079Z,99925.84
2022-08-09T05:22:33.107Z,99929.72
2022-08-09T05:29:22.693Z,99944.00
2022-08-09T05:32:01.812Z,99945.38
2022-08-09T05:35:12.955Z,99946.50
2022-08-09T05:37:47.710Z,99943.81
2022-08-09T05:40:19.774Z,99942.03
2022-08-09T05:42:52.366Z,99944.59
2022-08-09T05:50:35.108Z,99951.91
2022-08-09T05:52:55.055Z,99949.78
2022-08-09T05:55:25.202Z,99952.66
2022-08-09T06:02:33.212Z,99952.06
2022-08-09T06:05:05.805Z,99957.66
2022-08-09T06:08:05.499Z,99953.53
2022-08-09T06:15:30.155Z,99948.03
2022-08-09T06:18:04.302Z,99948.66
2022-08-09T06:20:42.508Z,99956.34
2022-08-09T06:23:55.496Z,99958.88
2022-08-09T06:26:28.433Z,99955.97
2022-08-09T06:29:16.911Z,99966.31
2022-08-09T06:32:17.143Z,99965.97
2022-08-09T06:34:50.160Z,99967.22
2022-08-09T06:38:06.083Z,99968.56
2022-08-09T06:40:36.217Z,99968.16
2022-08-09T06:48:00.902Z,99967.75
2022-08-09T06:51:14.879Z,99962.81
2022-08-09T06:53:45.626Z,99965.38
2022-08-09T06:56:30.865Z,99964.66
2022-08-09T07:00:56.986Z,99963.16
2022-08-09T07:03:52.434Z,99958.94
2022-08-09T07:06:22.811Z,99954.13
2022-08-09T07:08:56.722Z,99959.38
2022-08-09T07:12:38.681Z,99964.06
2022-08-09T07:15:54.014Z,99958.94
2022-08-09T07:18:50.074Z,99965.81
2022-08-09T07:21:20.802Z,99965.31
2022-08-09T07:23:56.736Z,99963.69
2022-08-09T07:26:27.780Z,99975.97
2022-08-09T07:30:17.371Z,99963.22
2022-08-09T07:32:47.203Z,99959.97
2022-08-09T07:35:20.752Z,99965.38
2022-08-09T07:37:54.024Z,99968.91
2022-08-09T07:40:41.590Z,99969.94
2022-08-09T07:43:18.244Z,99955.84
2022-08-09T07:45:47.528Z,99965.31
2022-08-09T07:48:25.620Z,99965.25
2022-08-09T07:51:09.460Z,99963.34
2022-08-09T07:54:06.993Z,99962.78
2022-08-09T07:56:48.815Z,99964.63
2022-08-09T07:59:25.667Z,99971.13
2022-08-09T08:02:09.713Z,99963.41
2022-08-09T08:04:40.053Z,99968.31
2022-08-09T08:07:14.837Z,99965.53
2022-08-09T08:10:08.076Z,99961.63
2022-08-09T08:12:43.494Z,99969.38
2022-08-09T08:15:16.693Z,99964.06
2022-08-09T08:17:53.115Z,99959.59
2022-08-09T08:20:29.478Z,99951.91
2022-08-09T08:23:03.557Z,99955.88
2022-08-09T08:25:54.344Z,99956.78
2022-08-09T08:28:37.611Z,99959.09
2022-08-09T08:31:14.301Z,99955.16
2022-08-09T08:33:53.942Z,99951.78
2022-08-09T08:36:29.767Z,99952.47
2022-08-09T08:39:00.481Z,99961.34
2022-08-09T08:41:50.800Z,99958.38
2022-08-09T08:44:28.792Z,99953.81
2022-08-09T08:47:04.885Z,99955.28
2022-08-09T08:49:46.655Z,99953.22
2022-08-09T08:52:52.776Z,99955.53
2022-08-09T08:55:11.235Z,99954.34
2022-08-09T08:57:56.767Z,99958.31
2022-08-09T09:00:39.395Z,99957.56
2022-08-09T09:03:22.714Z,99963.66
2022-08-09T09:06:07.898Z,99956.78
2022-08-09T09:08:44.286Z,99954.97
2022-08-09T09:11:22.369Z,99951.75
2022-08-09T09:13:58.634Z,99954.84
2022-08-09T09:16:34.107Z,99958.28
2022-08-09T09:22:05.386Z,99946.03
2022-08-09T09:24:43.884Z,99951.09
2022-08-09T09:28:02.974Z,99946.50
2022-08-09T09:30:54.656Z,99952.75
2022-08-09T09:33:44.625Z,99954.47
2022-08-09T09:36:20.779Z,99950.66
2022-08-09T09:38:57.028Z,99948.94
2022-08-09T09:41:48.868Z,99948.94
2022-08-09T09:44:27.785Z,99953.66
2022-08-09T09:47:12.143Z,99951.59
2022-08-09T09:49:56.169Z,99934.38
2022-08-09T09:52:36.439Z,99936.19
2022-08-09T09:55:24.123Z,99947.50
2022-08-09T09:58:16.862Z,99943.63
2022-08-09T10:00:54.898Z,99946.69
2022-08-09T10:03:57.545Z,99942.16
2022-08-09T10:06:32.568Z,99938.53
2022-08-09T10:09:11.748Z,99946.00
2022-08-09T10:12:07.685Z,99943.25
2022-08-09T10:14:48.743Z,99941.28
2022-08-09T10:17:50.965Z,99940.81
2022-08-09T10:20:32.908Z,99938.66
2022-08-09T10:23:18.533Z,99941.84
2022-08-09T10:26:06.094Z,99930.94
2022-08-09T10:28:39.895Z,99928.22
2022-08-09T10:34:08.337Z,99926.81
2022-08-09T10:36:56.766Z,99921.91
2022-08-09T10:39:28.521Z,99933.31
2022-08-09T10:41:58.063Z,99927.03
2022-08-09T10:44:31.908Z,99937.41
2022-08-09T10:48:19.266Z,99933.34
2022-08-09T10:50:51.285Z,99919.69
2022-08-09T10:53:54.514Z,99925.63
2022-08-09T10:56:27.327Z,99930.84
2022-08-09T10:59:03.539Z,99934.00
2022-08-09T11:03:13.708Z,99932.06
2022-08-09T11:05:25.331Z,99930.44
2022-08-09T11:08:43.783Z,99928.00
2022-08-09T11:11:23.145Z,99923.97
2022-08-09T11:14:32.325Z,99927.84
2022-08-09T11:17:01.562Z,99918.13
2022-08-09T11:20:12.027Z,99921.91
2022-08-09T11:23:02.941Z,99932.41
2022-08-09T11:25:54.693Z,99918.91
2022-08-09T11:28:56.499Z,99923.50
2022-08-09T11:31:52.770Z,99922.88
2022-08-09T11:34:44.793Z,99906.00
2022-08-09T11:37:41.057Z,99907.34
2022-08-09T11:40:17.907Z,99908.66
2022-08-09T11:42:49.900Z,99905.50
2022-08-09T11:45:42.561Z,99904.25
2022-08-09T11:48:27.676Z,99900.44
2022-08-09T11:51:38.090Z,99899.59
2022-08-09T11:54:28.946Z,99905.81
2022-08-09T11:57:47.649Z,99902.34
2022-08-09T12:00:33.812Z,99901.28
2022-08-09T12:03:50.370Z,99907.16
2022-08-09T12:05:56.327Z,99904.84
2022-08-09T12:08:27.650Z,99897.66
2022-08-09T12:10:59.144Z,99899.19
2022-08-09T12:14:09.600Z,99898.09
2022-08-09T12:16:38.393Z,99901.88
2022-08-09T12:19:11.429Z,99892.72
2022-08-09T12:21:50.643Z,99889.78
2022-08-09T12:24:25.786Z,99882.34
2022-08-09T12:29:11.994Z,99884.06
2022-08-09T12:30:04.263Z,99880.81
2022-08-09T12:32:48.714Z,99871.59
2022-08-09T12:35:19.425Z,99880.84
2022-08-09T12:37:52.164Z,99875.13
2022-08-09T12:40:27.344Z,99882.31
2022-08-09T12:42:57.599Z,99874.97
2022-08-09T12:45:34.733Z,99864.78
2022-08-09T12:48:27.867Z,99871.25
2022-08-09T12:51:04.039Z,99872.97
2022-08-09T12:53:38.618Z,99875.69
2022-08-09T12:56:43.829Z,99873.00
2022-08-09T12:59:13.974Z,99868.38
2022-08-09T13:01:48.605Z,99868.91
2022-08-09T13:04:36.359Z,99869.09
2022-08-09T13:07:16.694Z,99877.16
2022-08-09T13:09:55.380Z,99869.16
2022-08-09T13:12:29.744Z,99857.13
2022-08-09T13:15:08.697Z,99866.88
2022-08-09T13:18:03.723Z,99869.78
2022-08-09T13:20:37.251Z,99871.19
2022-08-09T13:24:15.668Z,99865.88
2022-08-09T13:25:59.275Z,99871.88
2022-08-09T13:28:35.635Z,99868.19
2022-08-09T13:32:13.653Z,99858.38
2022-08-09T13:33:57.798Z,99860.78
2022-08-09T13:36:40.826Z,99867.91
2022-08-09T13:41:19.327Z,99858.00
2022-08-09T13:42:03.549Z,99862.44
2022-08-09T13:44:34.652Z,99864.97
2022-08-09T13:47:28.901Z,99865.78
2022-08-09T13:49:57.766Z,99868.38
2022-08-09T13:52:33.979Z,99868.38
2022-08-09T13:55:07.319Z,99863.22
2022-08-09T13:57:41.018Z,99865.28
2022-08-09T14:00:15.491Z,99869.66
2022-08-09T14:03:03.544Z,99871.09
2022-08-09T14:06:01.184Z,99874.81
2022-08-09T14:08:31.971Z,99865.06
2022-08-09T14:11:01.517Z,99864.66
2022-08-09T14:14:23.421Z,99868.72
2022-08-09T14:16:28.709Z,99869.88
2022-08-09T14:19:00.074Z,99865.66
2022-08-09T14:21:32.225Z,99866.28
2022-08-09T14:24:10.045Z,99861.03
2022-08-09T14:26:40.090Z,99855.97
2022-08-09T14:30:18.382Z,99857.66
2022-08-09T14:32:10.636Z,99855.22
2022-08-09T14:34:42.356Z,99860.38
2022-08-09T14:37:11.966Z,99850.78
2022-08-09T14:39:47.733Z,99855.31
2022-08-09T14:42:31.647Z,99853.13
2022-08-09T14:46:40.280Z,99858.53
2022-08-09T14:47:58.009Z,99859.31
2022-08-09T14:50:31.491Z,99864.69
2022-08-09T14:53:02.262Z,99857.03
2022-08-09T14:55:33.096Z,99860.69
2022-08-09T14:58:05.270Z,99861.03
2022-08-09T15:00:36.699Z,99853.25
2022-08-09T15:03:09.049Z,99844.09
2022-08-09T15:05:52.593Z,99854.66
2022-08-09T15:08:26.647Z,99852.41
2022-08-09T15:11:04.882Z,99851.91
2022-08-09T15:13:56.355Z,99845.66
2022-08-09T15:16:30.481Z,99848.06
2022-08-09T15:19:05.634Z,99840.81
2022-08-09T15:22:01.215Z,99846.81
2022-08-09T15:24:31.097Z,99849.03
2022-08-09T15:27:01.286Z,99848.63
2022-08-09T15:30:56.375Z,99840.34
2022-08-09T15:32:28.552Z,99845.88
2022-08-09T15:35:01.024Z,99835.06
2022-08-09T15:37:56.805Z,99834.91
2022-08-09T15:40:32.127Z,99836.75
2022-08-09T15:43:03.785Z,99838.56
2022-08-09T15:46:07.438Z,99833.53
2022-08-09T15:48:29.072Z,99838.25
2022-08-09T15:50:59.800Z,99832.94
2022-08-09T15:54:03.417Z,99835.28
2022-08-09T15:56:21.721Z,99844.09
2022-08-09T15:59:00.221Z,99832.72
2022-08-09T16:01:38.419Z,99836.97
2022-08-09T16:04:13.561Z,99833.44
2022-08-09T16:06:44.612Z,99822.34
2022-08-09T16:09:19.760Z,99826.84
2022-08-09T16:12:11.521Z,99822.16
2022-08-09T16:14:42.462Z,99819.59
2022-08-09T16:17:12.038Z,99822.84
2022-08-09T16:19:48.980Z,99824.81
2022-08-09T16:22:33.758Z,99825.41
2022-08-09T16:25:03.481Z,99817.81
2022-08-09T16:27:36.197Z,99826.25
2022-08-09T16:30:15.349Z,99832.44
2022-08-09T16:33:10.171Z,99818.69
2022-08-09T16:35:57.242Z,99823.56
2022-08-09T16:38:30.026Z,99823.16
2022-08-09T16:40:59.443Z,99825.59
2022-08-09T16:43:33.704Z,99831.28
2022-08-09T16:46:12.474Z,99834.22
2022-08-09T16:48:53.193Z,99826.47
2022-08-09T16:51:28.514Z,99831.66
2022-08-09T16:56:49.411Z,99829.25
2022-08-09T16:59:20.006Z,99831.38
2022-08-09T17:01:52.878Z,99824.44
2022-08-09T17:04:28.171Z,99828.47
2022-08-09T17:08:45.395Z,99824.94
2022-08-09T17:09:48.850Z,99825.44
2022-08-09T17:12:19.704Z,99829.00
2022-08-09T17:14:54.880Z,99825.28
2022-08-09T17:17:28.015Z,99826.75
2022-08-09T17:20:35.691Z,99834.84
2022-08-09T17:22:53.238Z,99818.94
2022-08-09T17:25:23.738Z,99825.59
2022-08-09T17:27:55.219Z,99820.41
2022-08-09T17:30:30.657Z,99828.16
2022-08-09T17:33:05.663Z,99830.91
2022-08-09T17:35:52.256Z,99829.75
2022-08-09T17:38:31.968Z,99836.25
2022-08-09T17:41:04.756Z,99836.25
2022-08-09T17:43:37.014Z,99831.84
2022-08-09T17:46:09.296Z,99832.19
2022-08-09T17:48:51.984Z,99831.38
2022-08-09T17:51:22.693Z,99836.41
2022-08-09T17:53:55.832Z,99836.22
2022-08-09T17:56:29.151Z,99836.38
2022-08-09T17:59:09.315Z,99834.22
2022-08-09T18:02:07.912Z,99837.75
2022-08-09T18:04:34.120Z,99838.69
2022-08-09T18:07:07.660Z,99839.16
2022-08-09T18:09:41.365Z,99845.38
2022-08-09T18:12:15.084Z,99852.72
2022-08-09T18:14:53.707Z,99847.84
2022-08-09T18:18:02.861Z,99844.69
2022-08-09T18:20:59.965Z,99850.28
2022-08-09T18:23:14.200Z,99846.47
2022-08-09T18:25:59.407Z,99858.50
2022-08-09T18:30:40.711Z,99850.66
2022-08-09T18:31:32.098Z,99859.00
2022-08-09T18:34:10.494Z,99860.88
2022-08-09T18:36:41.753Z,99868.16
2022-08-09T18:39:18.799Z,99869.59
2022-08-09T18:41:52.536Z,99870.63
2022-08-09T18:44:30.205Z,99871.25
2022-08-09T18:47:08.329Z,99876.03
2022-08-09T18:49:46.247Z,99879.59
2022-08-09T18:52:28.568Z,99879.19
2022-08-09T18:55:04.067Z,99875.63
2022-08-09T18:57:38.592Z,99881.28
2022-08-09T19:00:20.024Z,99885.00
2022-08-09T19:02:51.155Z,99887.84
2022-08-09T19:05:49.109Z,99893.22
2022-08-09T19:08:18.557Z,99904.78
2022-08-09T19:10:49.117Z,99909.28
2022-08-09T19:13:37.921Z,99915.97
2022-08-09T19:16:09.307Z,99918.47
2022-08-09T19:18:44.273Z,99914.94
2022-08-09T19:21:16.850Z,99925.22
2022-08-09T19:24:32.337Z,99918.66
2022-08-09T19:26:44.779Z,99922.69
2022-08-09T19:29:21.492Z,99928.97
2022-08-09T19:31:51.603Z,99924.94
2022-08-09T19:34:24.569Z,99915.03
2022-08-09T19:36:56.478Z,99931.50
2022-08-09T19:40:02.903Z,99926.75
2022-08-09T19:42:28.345Z,99929.00
2022-08-09T19:45:00.645Z,99930.16
2022-08-09T19:47:32.086Z,99932.50
2022-08-09T19:50:48.867Z,99933.19
2022-08-09T19:52:58.234Z,99931.41
2022-08-09T19:55:39.193Z,99934.38
2022-08-09T19:58:29.760Z,99937.81
2022-08-09T20:01:00.307Z,99928.25
2022-08-09T20:04:10.800Z,99939.84
2022-08-09T20:06:24.018Z,99936.09
2022-08-09T20:08:59.611Z,99949.63
2022-08-09T20:11:42.846Z,99943.66
2022-08-09T20:14:19.433Z,99950.31
2022-08-09T20:16:54.469Z,99950.94
2022-08-09T20:19:47.543Z,99950.16
2022-08-09T20:22:14.166Z,99961.47
2022-08-09T20:24:54.214Z,99950.56
2022-08-09T20:27:24.786Z,99960.38
2022-08-09T20:30:01.097Z,99956.66
2022-08-09T20:32:33.626Z,99953.34
2022-08-09T20:35:03.917Z,99956.38
2022-08-09T20:38:18.643Z,99962.97
2022-08-09T20:40:27.659Z,99959.25
2022-08-09T20:43:18.200Z,99961.72
2022-08-09T20:45:59.543Z,99957.91
2022-08-09T20:48:40.162Z,99953.06
2022-08-09T20:51:16.787Z,99956.34
2022-08-09T20:53:49.552Z,99957.50
2022-08-09T20:56:21.887Z,99958.34
2022-08-09T20:58:58.889Z,99954.53
2022-08-09T21:01:34.624Z,99953.22
2022-08-09T21:05:56.276Z,99957.91
2022-08-09T21:07:14.113Z,99959.28
2022-08-09T21:09:55.805Z,99954.34
2022-08-09T21:15:23.809Z,99951.41
2022-08-09T21:18:21.861Z,99953.34
2022-08-09T21:20:54.382Z,99953.09
2022-08-09T21:23:35.974Z,99964.25
2022-08-09T21:26:15.664Z,99964.81
2022-08-09T21:28:55.794Z,99962.63
2022-08-09T21:31:49.405Z,99961.56
2022-08-09T21:34:21.095Z,99970.28
2022-08-09T21:36:58.192Z,99959.94
2022-08-09T21:39:28.171Z,99963.78
2022-08-09T21:42:16.263Z,99970.31
2022-08-09T21:44:45.927Z,99968.94
2022-08-09T21:47:18.196Z,99970.84
2022-08-09T21:49:48.322Z,99971.38
2022-08-09T21:52:20.794Z,99972.22
2022-08-09T21:55:03.207Z,99977.34
2022-08-09T21:57:38.665Z,99971.38
2022-08-09T22:00:33.187Z,99981.44
2022-08-09T22:03:06.819Z,99984.13
2022-08-09T22:05:42.432Z,99982.72
2022-08-09T22:08:15.292Z,99993.06
2022-08-09T22:11:49.108Z,99993.38
2022-08-09T22:13:37.219Z,99995.78
2022-08-09T22:16:10.105Z,99990.34
2022-08-09T22:18:53.999Z,99990.06
2022-08-09T22:21:45.316Z,99993.31
2022-08-09T22:24:24.272Z,99990.84
2022-08-09T22:26:54.321Z,99989.78
2022-08-09T22:29:28.907Z,99991.09
2022-08-09T22:32:29.424Z,99987.53
2022-08-09T22:35:06.282Z,99986.97
2022-08-09T22:37:40.427Z,99993.25
2022-08-09T22:40:20.022Z,99986.44
2022-08-09T22:42:49.964Z,99983.41
2022-08-09T22:48:15.791Z,99991.22
2022-08-09T22:48:36.127Z,99997.72
2022-08-09T22:51:01.050Z,99988.75
2022-08-09T22:53:58.495Z,99994.41
2022-08-09T22:56:31.384Z,99988.97
2022-08-09T22:59:06.013Z,99989.78
2022-08-09T23:01:52.323Z,99987.13
2022-08-09T23:04:21.586Z,99996.53
2022-08-09T23:07:11.259Z,99994.31
2022-08-09T23:09:42.766Z,99998.03
2022-08-09T23:12:11.698Z,99997.22
2022-08-09T23:14:42.502Z,100002.28
2022-08-09T23:17:11.944Z,100001.72
2022-08-09T23:20:06.903Z,99992.53
2022-08-09T23:22:31.345Z,99993.81
2022-08-09T23:25:00.162Z,99990.75
2022-08-09T23:27:28.906Z,99985.34
2022-08-09T23:29:57.668Z,99987.75
2022-08-09T23:32:27.557Z,99983.00
2022-08-09T23:34:56.386Z,99981.91
2022-08-09T23:37:25.674Z,99983.72
2022-08-09T23:39:56.056Z,99989.06
2022-08-09T23:42:24.832Z,99984.88
2022-08-09T23:44:53.683Z,99990.09
2022-08-09T23:47:22.533Z,99983.53
2022-08-09T23:49:51.329Z,99982.66
2022-08-09T23:52:20.057Z,99986.63
2022-08-09T23:54:53.281Z,99981.22
2022-08-09T23:57:23.844Z,99982.59
